UUOB

Belgorod International Airport

Belgorod, Russian Federation
TAF UUOB 260201Z 2603/2612 20005MPS 9999 SCT030CB BKN070 TEMPO 2603/2608 3100 -TSRA
Issued Valid From Valid To
Apr-26 @ 02:01 UTC
(2 hours ago)
Apr-26 @ 03:00 UTC
(46 minutes ago)
Apr-26 @ 12:00 UTC
(in 8 hours)
Apr-26 @ 03:00 to Apr-26 @ 12:00
TAF UUOB 260201Z 2603/2612 20005MPS 9999 SCT030CB BKN070
Wind Visibility Clouds
200° at 10 knots 10,000+ meters
  • Scattered at 3,000' AGL
  • Broken at 7,000' AGL
Temporary Apr-26 @ 03:00 to Apr-26 @ 08:00
TEMPO 2603/2608 3100 -TSRA
Visibility Conditions
3,106 meters
  • Light Thunderstorm
  • Light Rain
TAF UUOB 260201Z 2603/2612 20005MPS 9999 SCT030CB BKN070 TEMPO 2603/2608 3100 -TSRA
Issued Apr-26 @ 02:01 UTC
(2 hours ago)
Valid From Apr-26 @ 03:00 UTC
(46 minutes ago)
Valid To Apr-26 @ 12:00 UTC
(in 8 hours)
Apr-26 @ 03:00 - Apr-26 @ 12:00
Wind Visibility
200° at 10 knots 10,000+ meters
Clouds
  • Scattered at 3,000' AGL
  • Broken at 7,000' AGL
Temporary Apr-26 @ 03:00 - Apr-26 @ 08:00
Conditions
  • Light Thunderstorm
  • Light Rain